createdAt,value
2019-02-27T00:00:15.551Z,99.52
2019-02-27T00:01:17.087Z,99.62
2019-02-27T00:02:15.529Z,99.52
2019-02-27T00:03:15.528Z,99.73
2019-02-27T00:04:15.502Z,99.26
2019-02-27T00:05:15.494Z,99.41
2019-02-27T00:06:16.044Z,99.41
2019-02-27T00:07:15.500Z,98.47
2019-02-27T00:08:15.487Z,98.74
2019-02-27T00:09:15.492Z,98.05
2019-02-27T00:10:15.439Z,98.16
2019-02-27T00:11:15.431Z,98.16
2019-02-27T00:12:16.993Z,98.16
2019-02-27T00:13:15.408Z,98.26
2019-02-27T00:14:15.419Z,97.85
2019-02-27T00:15:15.400Z,98.05
2019-02-27T00:16:15.374Z,98.16
2019-02-27T00:17:18.095Z,97.85
2019-02-27T00:18:15.352Z,98.16
2019-02-27T00:19:15.348Z,97.99
2019-02-27T00:20:15.361Z,97.99
2019-02-27T00:21:15.325Z,98.58
2019-02-27T00:22:17.685Z,98.41
2019-02-27T00:23:15.304Z,98.58
2019-02-27T00:24:15.291Z,99.20
2019-02-27T00:25:15.299Z,99.15
2019-02-27T00:26:15.279Z,99.41
2019-02-27T00:27:15.311Z,99.10
2019-02-27T00:28:15.336Z,98.99
2019-02-27T00:29:15.279Z,99.16
2019-02-27T00:30:15.241Z,97.86
2019-02-27T00:31:15.220Z,97.24
2019-02-27T00:32:15.769Z,97.24
2019-02-27T00:33:15.195Z,96.82
2019-02-27T00:34:15.291Z,96.30
2019-02-27T00:35:15.194Z,96.09
2019-02-27T00:36:15.242Z,95.78
2019-02-27T00:37:18.709Z,95.46
2019-02-27T00:38:15.234Z,96.09
2019-02-27T00:39:15.153Z,95.98
2019-02-27T00:40:15.119Z,95.78
2019-02-27T00:41:15.135Z,95.88
2019-02-27T00:42:19.485Z,96.30
2019-02-27T00:43:16.168Z,96.30
2019-02-27T00:44:15.077Z,96.82
2019-02-27T00:45:15.106Z,97.03
2019-02-27T00:46:15.058Z,96.19
2019-02-27T00:47:17.081Z,95.25
2019-02-27T00:48:15.035Z,95.56
2019-02-27T00:49:15.022Z,95.88
2019-02-27T00:50:15.009Z,95.67
2019-02-27T00:51:15.006Z,95.98
2019-02-27T00:52:18.070Z,95.78
2019-02-27T00:53:14.997Z,95.88
2019-02-27T00:54:14.967Z,95.04
2019-02-27T00:55:14.983Z,95.10
2019-02-27T00:56:14.951Z,94.37
2019-02-27T00:57:15.251Z,94.64
2019-02-27T00:58:14.956Z,94.17
2019-02-27T00:59:14.928Z,94.37
2019-02-27T01:00:14.939Z,93.96
2019-02-27T01:01:14.902Z,93.65
2019-02-27T01:02:14.932Z,93.75
2019-02-27T01:03:14.886Z,94.17
2019-02-27T01:04:14.890Z,93.96
2019-02-27T01:05:14.855Z,93.81
2019-02-27T01:06:15.367Z,94.12
2019-02-27T01:07:14.832Z,93.65
2019-02-27T01:08:14.856Z,94.27
2019-02-27T01:09:14.813Z,93.23
2019-02-27T01:10:14.849Z,93.44
2019-02-27T01:11:18.124Z,93.44
2019-02-27T01:12:14.779Z,94.00
2019-02-27T01:13:14.770Z,93.75
2019-02-27T01:14:14.756Z,93.85
2019-02-27T01:15:14.751Z,93.44
2019-02-27T01:16:16.973Z,93.33
2019-02-27T01:17:14.792Z,94.17
2019-02-27T01:18:14.719Z,94.17
2019-02-27T01:19:14.746Z,93.54
2019-02-27T01:20:14.701Z,93.02
2019-02-27T01:21:19.220Z,92.87
2019-02-27T01:22:15.704Z,92.50
2019-02-27T01:23:14.726Z,92.29
2019-02-27T01:24:14.997Z,93.18
2019-02-27T01:25:14.881Z,92.71
2019-02-27T01:26:14.664Z,92.35
2019-02-27T01:27:14.626Z,91.83
2019-02-27T01:28:14.610Z,91.72
2019-02-27T01:29:15.742Z,92.03
2019-02-27T01:30:14.597Z,92.03
2019-02-27T01:31:14.573Z,92.25
2019-02-27T01:32:14.588Z,92.03
2019-02-27T01:33:14.562Z,92.25
2019-02-27T01:34:14.542Z,92.10
2019-02-27T01:35:17.893Z,91.27
2019-02-27T01:36:14.531Z,90.79
2019-02-27T01:37:14.585Z,90.95
2019-02-27T01:38:14.548Z,91.78
2019-02-27T01:39:14.489Z,91.10
2019-02-27T01:40:17.417Z,90.79
2019-02-27T01:41:14.473Z,91.41
2019-02-27T01:42:14.464Z,90.89
2019-02-27T01:43:14.467Z,90.89
2019-02-27T01:44:14.448Z,91.20
2019-02-27T01:45:14.428Z,91.52
2019-02-27T01:46:14.436Z,91.52
2019-02-27T01:47:14.411Z,91.66
2019-02-27T01:48:14.398Z,91.14
2019-02-27T01:49:16.084Z,91.52
2019-02-27T01:50:14.382Z,91.66
2019-02-27T01:51:14.387Z,91.66
2019-02-27T01:52:14.380Z,91.77
2019-02-27T01:53:14.345Z,92.22
2019-02-27T01:54:15.001Z,92.33
2019-02-27T01:55:14.352Z,92.33
2019-02-27T01:56:14.315Z,92.54
2019-02-27T01:57:14.329Z,92.12
2019-02-27T01:58:14.287Z,92.60
2019-02-27T01:59:16.889Z,92.29
2019-02-27T02:00:14.272Z,91.97
2019-02-27T02:01:14.278Z,91.66
2019-02-27T02:02:14.278Z,91.52
2019-02-27T02:03:14.362Z,91.20
2019-02-27T02:04:14.226Z,91.06
2019-02-27T02:05:14.236Z,89.81
2019-02-27T02:06:14.215Z,88.98
2019-02-27T02:07:14.216Z,89.04
2019-02-27T02:08:14.660Z,88.62
2019-02-27T02:09:14.176Z,88.10
2019-02-27T02:10:14.186Z,88.27
2019-02-27T02:11:14.149Z,87.96
2019-02-27T02:12:14.212Z,88.17
2019-02-27T02:13:15.161Z,87.85
2019-02-27T02:14:14.214Z,88.06
2019-02-27T02:15:14.129Z,87.33
2019-02-27T02:16:14.099Z,87.54
2019-02-27T02:17:14.088Z,87.02
2019-02-27T02:18:14.501Z,87.33
2019-02-27T02:19:14.071Z,87.08
2019-02-27T02:20:14.058Z,85.94
2019-02-27T02:21:14.055Z,85.69
2019-02-27T02:22:14.225Z,85.38
2019-02-27T02:23:14.743Z,85.38
2019-02-27T02:24:14.052Z,85.59
2019-02-27T02:25:14.000Z,85.17
2019-02-27T02:26:13.992Z,86.21
2019-02-27T02:27:13.983Z,86.73
2019-02-27T02:28:14.667Z,87.29
2019-02-27T02:29:13.959Z,86.98
2019-02-27T02:30:13.971Z,86.77
2019-02-27T02:31:13.964Z,87.33
2019-02-27T02:32:16.822Z,87.02
2019-02-27T02:33:13.922Z,87.23
2019-02-27T02:34:13.928Z,87.23
2019-02-27T02:35:15.807Z,87.12
2019-02-27T02:36:13.884Z,86.91
2019-02-27T02:37:13.873Z,87.02
2019-02-27T02:38:14.126Z,87.33
2019-02-27T02:39:18.087Z,88.17
2019-02-27T02:40:14.848Z,87.58
2019-02-27T02:41:13.869Z,87.99
2019-02-27T02:42:13.824Z,88.10
2019-02-27T02:43:13.812Z,88.42
2019-02-27T02:44:13.824Z,88.52
2019-02-27T02:45:13.794Z,88.20
2019-02-27T02:46:13.783Z,87.02
2019-02-27T02:47:20.040Z,87.40
2019-02-27T02:48:14.766Z,85.83
2019-02-27T02:49:13.749Z,84.65
2019-02-27T02:50:17.372Z,83.68
2019-02-27T02:51:13.725Z,83.33
2019-02-27T02:52:13.734Z,82.91
2019-02-27T02:53:13.722Z,83.16
2019-02-27T02:54:13.692Z,84.61
2019-02-27T02:55:13.728Z,84.03
2019-02-27T02:56:13.693Z,84.13
2019-02-27T02:57:13.672Z,85.73
2019-02-27T02:58:13.663Z,86.04
2019-02-27T02:59:13.700Z,85.88
2019-02-27T03:00:13.656Z,85.35
2019-02-27T03:01:15.256Z,85.50
2019-02-27T03:02:13.650Z,86.22
2019-02-27T03:03:13.598Z,87.52
2019-02-27T03:04:13.729Z,86.68
2019-02-27T03:05:13.578Z,87.30
2019-02-27T03:06:13.600Z,87.30
2019-02-27T03:07:13.574Z,88.04
2019-02-27T03:08:19.780Z,89.18
2019-02-27T03:09:14.544Z,89.32
2019-02-27T03:10:13.557Z,89.32
2019-02-27T03:11:17.745Z,89.43
2019-02-27T03:12:14.520Z,89.37
2019-02-27T03:13:13.493Z,89.37
2019-02-27T03:14:17.276Z,89.47
2019-02-27T03:15:13.479Z,89.16
2019-02-27T03:16:13.509Z,89.93
2019-02-27T03:17:17.911Z,89.62
2019-02-27T03:18:14.434Z,89.93
2019-02-27T03:19:13.456Z,89.72
2019-02-27T03:20:16.795Z,89.10
2019-02-27T03:21:13.414Z,89.51
2019-02-27T03:22:13.403Z,89.41
2019-02-27T03:23:15.570Z,90.03
2019-02-27T03:24:13.398Z,89.93
2019-02-27T03:25:13.363Z,89.47
2019-02-27T03:26:16.499Z,88.85
2019-02-27T03:27:13.347Z,89.78
2019-02-27T03:28:13.335Z,88.75
2019-02-27T03:29:16.902Z,88.64
2019-02-27T03:30:13.315Z,89.47
2019-02-27T03:31:18.487Z,89.72
2019-02-27T03:32:14.290Z,88.99
2019-02-27T03:33:22.695Z,89.51
2019-02-27T03:34:14.326Z,89.62
2019-02-27T03:35:13.255Z,89.51
2019-02-27T03:36:13.247Z,89.41
2019-02-27T03:37:14.175Z,89.51
2019-02-27T03:38:13.267Z,89.47
2019-02-27T03:39:13.235Z,89.47
2019-02-27T03:40:13.245Z,89.62
2019-02-27T03:41:13.200Z,89.26
2019-02-27T03:42:13.256Z,88.85
2019-02-27T03:43:13.174Z,88.01
2019-02-27T03:44:13.270Z,88.12
2019-02-27T03:45:13.152Z,88.85
2019-02-27T03:46:13.162Z,88.39
2019-02-27T03:47:16.777Z,88.39
2019-02-27T03:48:13.255Z,88.39
2019-02-27T03:49:13.109Z,88.39
2019-02-27T03:50:15.046Z,87.14
2019-02-27T03:51:13.102Z,87.45
2019-02-27T03:52:13.082Z,87.76
2019-02-27T03:53:13.067Z,87.04
2019-02-27T03:54:13.087Z,87.41
2019-02-27T03:55:13.148Z,86.99
2019-02-27T03:56:13.037Z,87.30
2019-02-27T03:57:18.984Z,86.99
2019-02-27T03:58:14.008Z,86.58
2019-02-27T03:59:13.007Z,86.02
2019-02-27T04:00:17.978Z,86.12
2019-02-27T04:01:13.998Z,85.81
2019-02-27T04:02:12.974Z,85.81
2019-02-27T04:03:17.127Z,86.22
2019-02-27T04:04:13.973Z,86.02
2019-02-27T04:05:12.945Z,85.71
2019-02-27T04:06:12.932Z,84.66
2019-02-27T04:07:12.915Z,85.39
2019-02-27T04:08:12.905Z,85.29
2019-02-27T04:09:18.570Z,85.08
2019-02-27T04:10:13.898Z,85.56
2019-02-27T04:11:12.877Z,85.04
2019-02-27T04:12:16.196Z,84.27
2019-02-27T04:13:12.855Z,84.23
2019-02-27T04:14:12.872Z,83.16
2019-02-27T04:15:17.715Z,83.26
2019-02-27T04:16:13.821Z,81.98
2019-02-27T04:17:12.816Z,80.49
2019-02-27T04:18:12.797Z,79.30
2019-02-27T04:19:12.796Z,78.86
2019-02-27T04:20:15.474Z,76.43
2019-02-27T04:21:12.769Z,75.67
2019-02-27T04:22:12.755Z,74.81
2019-02-27T04:23:12.937Z,73.63
2019-02-27T04:24:12.739Z,73.60
2019-02-27T04:25:12.757Z,73.39
2019-02-27T04:26:12.720Z,72.56
2019-02-27T04:27:12.702Z,72.74
2019-02-27T04:28:12.696Z,72.02
2019-02-27T04:29:12.690Z,71.53
2019-02-27T04:30:14.968Z,71.33
2019-02-27T04:31:12.699Z,73.08
2019-02-27T04:32:13.298Z,72.77
2019-02-27T04:33:12.644Z,72.91
2019-02-27T04:34:12.654Z,73.22
2019-02-27T04:35:12.618Z,73.43
2019-02-27T04:36:13.390Z,73.77
2019-02-27T04:37:12.601Z,73.77
2019-02-27T04:38:12.618Z,72.84
2019-02-27T04:39:12.574Z,73.15
2019-02-27T04:40:12.576Z,71.25
2019-02-27T04:41:12.555Z,70.91
2019-02-27T04:42:12.542Z,70.57
2019-02-27T04:43:12.539Z,70.36
2019-02-27T04:44:12.543Z,69.19
2019-02-27T04:45:13.129Z,69.29
2019-02-27T04:46:12.508Z,69.81
2019-02-27T04:47:12.491Z,68.88
2019-02-27T04:48:12.482Z,70.77
2019-02-27T04:49:12.493Z,68.77
2019-02-27T04:50:12.457Z,70.84
2019-02-27T04:51:16.865Z,68.77
2019-02-27T04:52:13.439Z,69.32
2019-02-27T04:53:12.426Z,68.80
2019-02-27T04:54:12.413Z,69.22
2019-02-27T04:55:13.080Z,69.74
2019-02-27T04:56:12.395Z,70.18
2019-02-27T04:57:12.388Z,69.25
2019-02-27T04:58:12.379Z,69.77
2019-02-27T04:59:12.359Z,70.18
2019-02-27T05:00:12.351Z,69.77
2019-02-27T05:01:12.360Z,70.08
2019-02-27T05:02:14.651Z,71.01
2019-02-27T05:03:12.346Z,71.88
2019-02-27T05:04:12.309Z,71.80
2019-02-27T05:05:12.299Z,72.22
2019-02-27T05:06:14.484Z,72.11
2019-02-27T05:07:12.278Z,71.39
2019-02-27T05:08:12.269Z,72.84
2019-02-27T05:09:12.796Z,72.11
2019-02-27T05:10:12.247Z,72.01
2019-02-27T05:11:14.166Z,72.25
2019-02-27T05:12:12.221Z,72.25
2019-02-27T05:13:12.210Z,71.84
2019-02-27T05:14:12.209Z,72.77
2019-02-27T05:15:12.194Z,72.36
2019-02-27T05:16:14.179Z,71.42
2019-02-27T05:17:12.187Z,71.63
2019-02-27T05:18:12.161Z,71.53
2019-02-27T05:19:12.143Z,71.84
2019-02-27T05:20:12.694Z,71.42
2019-02-27T05:21:12.124Z,72.67
2019-02-27T05:22:12.128Z,72.88
2019-02-27T05:23:12.115Z,71.84
2019-02-27T05:24:12.093Z,71.63
2019-02-27T05:25:14.385Z,71.42
2019-02-27T05:26:12.069Z,72.49
2019-02-27T05:27:12.080Z,71.14
2019-02-27T05:28:12.049Z,71.73
2019-02-27T05:29:12.039Z,72.15
2019-02-27T05:30:12.810Z,71.63
2019-02-27T05:31:12.016Z,71.53
2019-02-27T05:32:12.025Z,70.97
2019-02-27T05:33:11.995Z,70.56
2019-02-27T05:34:13.480Z,69.97
2019-02-27T05:35:11.985Z,71.80
2019-02-27T05:36:11.965Z,69.94
2019-02-27T05:37:11.971Z,70.97
2019-02-27T05:38:11.967Z,70.28
2019-02-27T05:39:11.927Z,70.46
2019-02-27T05:40:11.918Z,70.90
2019-02-27T05:41:11.910Z,72.25
2019-02-27T05:42:13.207Z,72.18
2019-02-27T05:43:13.873Z,71.87
2019-02-27T05:44:11.880Z,71.56
2019-02-27T05:45:11.866Z,71.45
2019-02-27T05:46:11.852Z,69.87
2019-02-27T05:47:11.997Z,69.42
2019-02-27T05:48:11.835Z,68.80
2019-02-27T05:49:11.862Z,69.39
2019-02-27T05:50:11.816Z,68.77
2019-02-27T05:51:11.800Z,68.74
2019-02-27T05:52:14.263Z,68.74
2019-02-27T05:53:11.782Z,69.12
2019-02-27T05:54:11.782Z,67.88
2019-02-27T05:55:11.764Z,67.67
2019-02-27T05:56:15.477Z,66.74
2019-02-27T05:57:11.758Z,65.81
2019-02-27T05:58:11.722Z,67.05
2019-02-27T05:59:11.719Z,66.39
2019-02-27T06:00:11.723Z,66.09
2019-02-27T06:01:11.696Z,65.64
2019-02-27T06:02:11.703Z,65.23
2019-02-27T06:03:11.668Z,65.23
2019-02-27T06:04:11.678Z,65.02
2019-02-27T06:05:11.650Z,64.61
2019-02-27T06:06:12.370Z,64.71
2019-02-27T06:07:11.634Z,63.78
2019-02-27T06:08:11.650Z,63.89
2019-02-27T06:09:11.633Z,64.40
2019-02-27T06:10:11.694Z,64.48
2019-02-27T06:11:11.608Z,65.20
2019-02-27T06:12:11.575Z,64.81
2019-02-27T06:13:14.067Z,65.85
2019-02-27T06:14:11.564Z,65.57
2019-02-27T06:15:11.543Z,67.46
2019-02-27T06:16:11.538Z,65.19
2019-02-27T06:17:12.858Z,67.15
2019-02-27T06:18:11.554Z,67.57
2019-02-27T06:19:11.503Z,67.29
2019-02-27T06:20:11.490Z,68.53
2019-02-27T06:21:15.518Z,68.46
2019-02-27T06:22:11.499Z,68.80
2019-02-27T06:23:11.453Z,68.70
2019-02-27T06:24:12.574Z,71.11
2019-02-27T06:25:12.391Z,69.97
2019-02-27T06:26:11.420Z,71.25
2019-02-27T06:27:11.416Z,72.28
2019-02-27T06:28:11.433Z,70.73
2019-02-27T06:29:11.421Z,70.10
2019-02-27T06:30:11.379Z,71.56
2019-02-27T06:31:11.372Z,69.35
2019-02-27T06:32:12.359Z,69.32
2019-02-27T06:33:11.872Z,70.25
2019-02-27T06:34:11.359Z,69.63
2019-02-27T06:35:11.325Z,68.98
2019-02-27T06:36:11.343Z,68.87
2019-02-27T06:37:15.342Z,68.15
2019-02-27T06:38:11.294Z,68.63
2019-02-27T06:39:11.468Z,68.22
2019-02-27T06:40:11.289Z,67.70
2019-02-27T06:41:15.378Z,68.01
2019-02-27T06:42:11.422Z,67.80
2019-02-27T06:43:11.481Z,68.19
2019-02-27T06:44:11.251Z,68.22
2019-02-27T06:45:12.661Z,67.67
2019-02-27T06:46:11.363Z,67.57
2019-02-27T06:47:11.272Z,67.57
2019-02-27T06:48:11.968Z,67.60
2019-02-27T06:49:11.258Z,68.74
2019-02-27T06:50:12.037Z,69.04
2019-02-27T06:51:11.248Z,67.80
2019-02-27T06:52:11.200Z,68.22
2019-02-27T06:53:15.629Z,67.70
2019-02-27T06:54:12.130Z,67.18
2019-02-27T06:55:13.108Z,67.70
2019-02-27T06:56:11.108Z,66.84
2019-02-27T06:57:11.100Z,67.15
2019-02-27T06:58:14.603Z,67.49
2019-02-27T06:59:11.126Z,67.57
2019-02-27T07:00:11.084Z,67.36
2019-02-27T07:01:13.098Z,67.36
2019-02-27T07:02:11.085Z,66.42
2019-02-27T07:03:11.048Z,67.05
2019-02-27T07:04:11.047Z,66.22
2019-02-27T07:05:13.446Z,66.63
2019-02-27T07:06:11.036Z,66.19
2019-02-27T07:07:11.008Z,67.15
2019-02-27T07:08:11.037Z,67.02
2019-02-27T07:09:11.595Z,66.19
2019-02-27T07:10:11.314Z,65.16
2019-02-27T07:11:11.313Z,67.02
2019-02-27T07:12:11.061Z,66.71
2019-02-27T07:13:10.964Z,68.19
2019-02-27T07:14:11.432Z,67.74
2019-02-27T07:15:12.814Z,67.25
2019-02-27T07:16:10.885Z,69.01
2019-02-27T07:17:11.091Z,69.25
2019-02-27T07:18:11.967Z,68.91
2019-02-27T07:19:13.140Z,68.94
2019-02-27T07:20:10.877Z,68.01
2019-02-27T07:21:10.842Z,68.32
2019-02-27T07:22:12.658Z,68.70
2019-02-27T07:23:10.869Z,68.29
2019-02-27T07:24:11.058Z,66.94
2019-02-27T07:25:11.201Z,67.25
2019-02-27T07:26:13.236Z,67.30
2019-02-27T07:27:11.947Z,66.47
2019-02-27T07:28:11.757Z,65.23
2019-02-27T07:29:11.131Z,66.13
2019-02-27T07:30:10.774Z,65.72
2019-02-27T07:31:12.441Z,63.62
2019-02-27T07:32:10.789Z,64.65
2019-02-27T07:33:10.950Z,62.55
2019-02-27T07:34:14.217Z,61.29
2019-02-27T07:35:11.151Z,61.16
2019-02-27T07:36:10.710Z,60.51
2019-02-27T07:37:12.955Z,60.61
2019-02-27T07:38:10.883Z,60.17
2019-02-27T07:39:10.660Z,59.45
2019-02-27T07:40:10.892Z,59.25
2019-02-27T07:41:10.639Z,59.12
2019-02-27T07:42:10.622Z,58.19
2019-02-27T07:43:10.806Z,58.98
2019-02-27T07:44:10.716Z,58.47
2019-02-27T07:45:11.265Z,58.47
2019-02-27T07:46:10.595Z,58.14
2019-02-27T07:47:10.646Z,57.52
2019-02-27T07:48:10.550Z,57.42
2019-02-27T07:49:10.577Z,57.42
2019-02-27T07:50:10.554Z,57.59
2019-02-27T07:51:10.512Z,56.98
2019-02-27T07:52:10.502Z,56.77
2019-02-27T07:53:10.524Z,57.08
2019-02-27T07:54:10.502Z,57.08
2019-02-27T07:55:20.986Z,56.36
2019-02-27T07:56:11.461Z,55.85
2019-02-27T07:57:10.608Z,56.13
2019-02-27T07:58:10.668Z,56.64
2019-02-27T07:59:10.425Z,55.10
2019-02-27T08:00:14.979Z,54.25
2019-02-27T08:01:10.408Z,53.02
2019-02-27T08:02:10.398Z,54.43
2019-02-27T08:03:13.004Z,53.61
2019-02-27T08:04:10.377Z,52.48
2019-02-27T08:05:10.359Z,53.08
2019-02-27T08:06:10.374Z,51.74
2019-02-27T08:07:12.384Z,52.12
2019-02-27T08:08:10.331Z,50.79
2019-02-27T08:09:10.323Z,52.20
2019-02-27T08:10:10.679Z,53.25
2019-02-27T08:11:13.113Z,52.41
2019-02-27T08:12:10.307Z,53.03
2019-02-27T08:13:10.273Z,54.49
2019-02-27T08:14:10.278Z,53.87
2019-02-27T08:15:10.865Z,52.95
2019-02-27T08:16:10.246Z,52.82
2019-02-27T08:17:17.234Z,53.64
2019-02-27T08:18:11.262Z,51.90
2019-02-27T08:19:11.551Z,52.41
2019-02-27T08:20:10.215Z,51.39
2019-02-27T08:21:10.213Z,53.61
2019-02-27T08:22:10.218Z,50.74
2019-02-27T08:23:10.166Z,50.54
2019-02-27T08:24:10.155Z,52.77
2019-02-27T08:25:10.142Z,52.05
2019-02-27T08:26:10.151Z,51.51
2019-02-27T08:27:10.394Z,52.34
2019-02-27T08:28:10.118Z,51.29
2019-02-27T08:29:10.107Z,52.00
2019-02-27T08:30:10.097Z,52.62
2019-02-27T08:31:10.098Z,52.21
2019-02-27T08:32:10.069Z,53.54
2019-02-27T08:33:10.059Z,51.88
2019-02-27T08:34:10.068Z,49.63
2019-02-27T08:35:10.044Z,48.58
2019-02-27T08:36:10.380Z,48.89
2019-02-27T08:37:10.300Z,51.14
2019-02-27T08:38:10.137Z,49.07
2019-02-27T08:39:10.049Z,51.34
2019-02-27T08:40:09.987Z,49.58
2019-02-27T08:41:10.002Z,49.17
2019-02-27T08:42:10.195Z,49.07
2019-02-27T08:43:10.915Z,50.17
2019-02-27T08:44:12.290Z,49.07
2019-02-27T08:45:18.934Z,48.84
2019-02-27T08:46:10.937Z,49.15
2019-02-27T08:47:10.314Z,50.78
2019-02-27T08:48:10.123Z,51.09
2019-02-27T08:49:09.965Z,50.27
2019-02-27T08:50:09.881Z,51.09
2019-02-27T08:51:09.934Z,50.89
2019-02-27T08:52:09.904Z,48.82
2019-02-27T08:53:10.391Z,48.90
2019-02-27T08:54:09.991Z,49.29
2019-02-27T08:55:18.842Z,47.34
2019-02-27T08:56:12.379Z,46.81
2019-02-27T08:57:10.019Z,46.61
2019-02-27T08:58:09.797Z,48.63
2019-02-27T08:59:09.808Z,47.40
2019-02-27T09:00:14.225Z,48.63
2019-02-27T09:01:11.011Z,47.20
2019-02-27T09:02:09.787Z,46.79
2019-02-27T09:03:19.749Z,46.89
2019-02-27T09:04:12.228Z,47.61
2019-02-27T09:05:09.710Z,49.65
2019-02-27T09:06:09.721Z,47.61
2019-02-27T09:07:09.777Z,49.04
2019-02-27T09:08:10.175Z,48.10
2019-02-27T09:09:09.685Z,46.56
2019-02-27T09:10:09.847Z,48.71
2019-02-27T09:11:09.810Z,47.66
2019-02-27T09:12:13.153Z,48.27
2019-02-27T09:13:09.780Z,46.52
2019-02-27T09:14:11.962Z,46.01
2019-02-27T09:15:10.182Z,46.42
2019-02-27T09:16:09.609Z,46.01
2019-02-27T09:17:09.774Z,46.30
2019-02-27T09:18:09.748Z,46.81
2019-02-27T09:19:10.146Z,45.59
2019-02-27T09:20:09.746Z,46.30
2019-02-27T09:21:09.839Z,47.52
2019-02-27T09:22:10.014Z,46.09
2019-02-27T09:23:09.557Z,44.75
2019-02-27T09:24:09.537Z,46.68
2019-02-27T09:25:09.580Z,46.28
2019-02-27T09:26:09.701Z,45.87
2019-02-27T09:27:09.512Z,46.58
2019-02-27T09:28:10.061Z,44.95
2019-02-27T09:29:09.478Z,45.95
2019-02-27T09:30:09.443Z,43.30
2019-02-27T09:31:09.439Z,43.00
2019-02-27T09:32:11.682Z,44.53
2019-02-27T09:33:10.110Z,43.29
2019-02-27T09:34:09.447Z,43.06
2019-02-27T09:35:09.417Z,44.68
2019-02-27T09:36:10.294Z,43.47
2019-02-27T09:37:09.479Z,42.96
2019-02-27T09:38:09.466Z,43.35
2019-02-27T09:39:09.351Z,43.04
2019-02-27T09:40:09.390Z,42.13
2019-02-27T09:41:12.173Z,43.75
2019-02-27T09:42:09.314Z,43.35
2019-02-27T09:43:09.339Z,44.16
2019-02-27T09:44:09.298Z,44.85
2019-02-27T09:45:11.088Z,44.24
2019-02-27T09:46:09.275Z,46.14
2019-02-27T09:47:09.388Z,45.64
2019-02-27T09:48:09.387Z,43.99
2019-02-27T09:49:09.252Z,46.63
2019-02-27T09:50:09.237Z,46.43
2019-02-27T09:51:09.801Z,43.99
2019-02-27T09:52:09.256Z,42.15
2019-02-27T09:53:09.267Z,44.07
2019-02-27T09:54:11.074Z,42.94
2019-02-27T09:55:09.223Z,42.96
2019-02-27T09:56:09.266Z,43.87
2019-02-27T09:57:09.217Z,41.83
2019-02-27T09:58:11.107Z,44.26
2019-02-27T09:59:09.185Z,41.09
2019-02-27T10:00:09.213Z,42.92
2019-02-27T10:01:09.113Z,43.10
2019-02-27T10:02:12.321Z,44.52
2019-02-27T10:03:09.087Z,47.74
2019-02-27T10:04:09.736Z,44.29
2019-02-27T10:05:09.106Z,43.57
2019-02-27T10:06:09.417Z,42.66
2019-02-27T10:07:09.060Z,40.41
2019-02-27T10:08:09.101Z,38.59
2019-02-27T10:09:09.029Z,38.68
2019-02-27T10:10:10.433Z,38.98
2019-02-27T10:11:09.078Z,41.00
2019-02-27T10:12:09.061Z,41.71
2019-02-27T10:13:09.147Z,42.41
2019-02-27T10:14:08.972Z,39.99
2019-02-27T10:15:08.958Z,40.08
2019-02-27T10:16:08.949Z,35.83
2019-02-27T10:17:09.286Z,39.26
2019-02-27T10:18:08.966Z,38.46
2019-02-27T10:19:08.915Z,38.35
2019-02-27T10:20:08.935Z,39.97
2019-02-27T10:21:09.396Z,38.07
2019-02-27T10:22:08.878Z,36.35
2019-02-27T10:23:08.919Z,38.48
2019-02-27T10:24:08.872Z,40.11
2019-02-27T10:25:09.536Z,38.29
2019-02-27T10:26:08.838Z,39.00
2019-02-27T10:27:08.825Z,38.09
2019-02-27T10:28:10.656Z,39.20
2019-02-27T10:29:10.939Z,39.50
2019-02-27T10:30:11.536Z,43.95
2019-02-27T10:31:08.789Z,39.91
2019-02-27T10:32:08.768Z,37.08
2019-02-27T10:33:11.175Z,34.74
2019-02-27T10:34:08.762Z,35.33
2019-02-27T10:35:08.740Z,35.53
2019-02-27T10:36:10.642Z,34.62
2019-02-27T10:37:12.923Z,34.72
2019-02-27T10:38:09.727Z,35.01
2019-02-27T10:39:08.694Z,35.50
2019-02-27T10:40:11.342Z,33.38
2019-02-27T10:41:08.673Z,35.28
2019-02-27T10:42:08.678Z,34.37
2019-02-27T10:43:08.655Z,34.77
2019-02-27T10:44:08.713Z,33.26
2019-02-27T10:45:10.111Z,32.96
2019-02-27T10:46:08.638Z,32.15
2019-02-27T10:47:08.611Z,34.88
2019-02-27T10:48:08.622Z,33.35
2019-02-27T10:49:08.590Z,32.95
2019-02-27T10:50:08.582Z,34.56
2019-02-27T10:51:09.452Z,33.13
2019-02-27T10:52:08.565Z,33.13
2019-02-27T10:53:08.591Z,34.94
2019-02-27T10:54:08.571Z,33.84
2019-02-27T10:55:11.380Z,33.85
2019-02-27T10:56:09.507Z,30.63
2019-02-27T10:57:08.570Z,31.52
2019-02-27T10:58:12.601Z,32.83
2019-02-27T10:59:08.563Z,32.93
2019-02-27T11:00:08.473Z,32.53
2019-02-27T11:01:08.523Z,32.93
2019-02-27T11:02:09.725Z,32.91
2019-02-27T11:03:08.452Z,32.11
2019-02-27T11:04:08.452Z,33.40
2019-02-27T11:05:08.418Z,31.09
2019-02-27T11:06:08.405Z,31.48
2019-02-27T11:07:08.392Z,30.96
2019-02-27T11:08:08.382Z,31.34
2019-02-27T11:09:08.390Z,30.43
2019-02-27T11:10:08.361Z,31.92
2019-02-27T11:11:08.815Z,30.31
2019-02-27T11:12:08.349Z,30.80
2019-02-27T11:13:08.342Z,32.00
2019-02-27T11:14:08.348Z,29.19
2019-02-27T11:15:08.327Z,28.99
2019-02-27T11:16:08.295Z,28.88
2019-02-27T11:17:08.292Z,30.27
2019-02-27T11:18:08.282Z,27.96
2019-02-27T11:19:08.263Z,30.45
2019-02-27T11:20:08.268Z,27.94
2019-02-27T11:21:08.239Z,28.03
2019-02-27T11:22:08.231Z,27.73
2019-02-27T11:23:08.222Z,28.05
2019-02-27T11:24:08.232Z,30.85
2019-02-27T11:25:08.202Z,29.24
2019-02-27T11:26:08.230Z,28.42
2019-02-27T11:27:08.179Z,26.81
2019-02-27T11:28:08.163Z,29.01
2019-02-27T11:29:08.171Z,29.11
2019-02-27T11:30:08.161Z,28.91
2019-02-27T11:31:08.429Z,30.31
2019-02-27T11:32:08.154Z,33.23
2019-02-27T11:33:08.110Z,28.82
2019-02-27T11:34:08.498Z,28.02
2019-02-27T11:35:08.103Z,29.32
2019-02-27T11:36:08.109Z,30.24
2019-02-27T11:37:12.849Z,29.03
2019-02-27T11:38:09.058Z,30.95
2019-02-27T11:39:08.059Z,29.86
2019-02-27T11:40:08.459Z,33.06
2019-02-27T11:41:08.083Z,31.74
2019-02-27T11:42:08.103Z,31.23
2019-02-27T11:43:08.111Z,31.40
2019-02-27T11:44:08.067Z,29.30
2019-02-27T11:45:08.015Z,29.31
2019-02-27T11:46:07.976Z,29.12
2019-02-27T11:47:11.000Z,28.92
2019-02-27T11:48:07.952Z,30.73
2019-02-27T11:49:07.976Z,28.21
2019-02-27T11:50:07.932Z,27.71
2019-02-27T11:51:07.922Z,30.49
2019-02-27T11:52:07.979Z,30.21
2019-02-27T11:53:07.894Z,31.98
2019-02-27T11:54:09.063Z,29.57
2019-02-27T11:55:07.878Z,27.97
2019-02-27T11:56:07.872Z,29.25
2019-02-27T11:57:07.858Z,27.57
2019-02-27T11:58:07.847Z,29.88
2019-02-27T11:59:10.289Z,29.58
2019-02-27T12:00:07.842Z,27.98
2019-02-27T12:01:07.810Z,30.77
2019-02-27T12:02:07.816Z,29.27
2019-02-27T12:03:08.632Z,28.27
2019-02-27T12:04:07.800Z,28.87
2019-02-27T12:05:07.857Z,29.06
2019-02-27T12:06:08.438Z,32.17
2019-02-27T12:07:07.748Z,30.07
2019-02-27T12:08:07.740Z,29.05
2019-02-27T12:09:07.729Z,28.05
2019-02-27T12:10:08.954Z,28.17
2019-02-27T12:11:09.678Z,29.97
2019-02-27T12:12:07.692Z,28.88
2019-02-27T12:13:07.679Z,27.48
2019-02-27T12:14:08.984Z,28.78
2019-02-27T12:15:09.112Z,28.08
2019-02-27T12:16:07.658Z,28.80
2019-02-27T12:17:07.641Z,29.30
2019-02-27T12:18:07.647Z,29.00
2019-02-27T12:19:08.689Z,30.40
2019-02-27T12:20:07.602Z,28.00
2019-02-27T12:21:07.616Z,28.19
2019-02-27T12:22:07.603Z,29.80
2019-02-27T12:23:10.111Z,30.29
2019-02-27T12:24:07.560Z,29.69
2019-02-27T12:25:07.572Z,30.29
2019-02-27T12:26:07.557Z,30.10
2019-02-27T12:27:10.362Z,30.19
2019-02-27T12:28:08.522Z,31.40
2019-02-27T12:29:07.541Z,35.39
2019-02-27T12:30:07.572Z,31.90
2019-02-27T12:31:08.185Z,30.01
2019-02-27T12:32:07.501Z,30.02
2019-02-27T12:33:07.486Z,31.14
2019-02-27T12:34:07.452Z,30.34
2019-02-27T12:35:08.295Z,30.15
2019-02-27T12:36:08.967Z,32.27
2019-02-27T12:37:19.138Z,31.37
2019-02-27T12:38:08.587Z,32.59
2019-02-27T12:39:07.402Z,32.67
2019-02-27T12:40:07.390Z,31.07
2019-02-27T12:41:07.402Z,31.37
2019-02-27T12:42:07.829Z,35.48
2019-02-27T12:43:07.372Z,35.46
2019-02-27T12:44:07.339Z,30.57
2019-02-27T12:45:07.411Z,34.38
2019-02-27T12:46:07.346Z,33.39
2019-02-27T12:47:07.329Z,31.29
2019-02-27T12:48:07.351Z,33.19
2019-02-27T12:49:07.292Z,33.61
2019-02-27T12:50:07.278Z,32.30
2019-02-27T12:51:07.266Z,35.82
2019-02-27T12:52:08.975Z,31.79